createdAt,value
2022-08-31T00:00:13.234Z,51.60
2022-08-31T00:02:04.203Z,51.70
2022-08-31T00:03:56.815Z,51.70
2022-08-31T00:05:30.332Z,51.90
2022-08-31T00:07:03.640Z,52.00
2022-08-31T00:08:36.949Z,52.00
2022-08-31T00:10:15.026Z,52.20
2022-08-31T00:11:49.892Z,52.30
2022-08-31T00:13:26.122Z,52.30
2022-08-31T00:14:59.756Z,52.40
2022-08-31T00:16:37.075Z,52.40
2022-08-31T00:18:11.602Z,52.70
2022-08-31T00:19:45.143Z,52.70
2022-08-31T00:21:17.660Z,52.80
2022-08-31T00:22:51.010Z,52.90
2022-08-31T00:24:24.510Z,52.80
2022-08-31T00:25:58.775Z,52.90
2022-08-31T00:27:32.766Z,52.90
2022-08-31T00:29:06.789Z,52.90
2022-08-31T00:30:40.832Z,52.90
2022-08-31T00:32:14.969Z,52.90
2022-08-31T00:33:56.588Z,52.90
2022-08-31T00:35:32.664Z,53.00
2022-08-31T00:37:06.142Z,53.10
2022-08-31T00:38:40.485Z,53.10
2022-08-31T00:40:15.040Z,53.30
2022-08-31T00:41:48.824Z,53.30
2022-08-31T00:43:50.912Z,53.30
2022-08-31T00:45:25.296Z,53.60
2022-08-31T00:46:58.709Z,53.30
2022-08-31T00:48:31.735Z,53.40
2022-08-31T00:50:09.894Z,53.40
2022-08-31T00:51:51.306Z,53.50
2022-08-31T00:53:26.387Z,53.60
2022-08-31T00:55:06.323Z,53.60
2022-08-31T00:56:44.738Z,53.70
2022-08-31T00:58:17.252Z,53.80
2022-08-31T00:59:52.600Z,53.70
2022-08-31T01:01:32.628Z,53.80
2022-08-31T01:03:14.010Z,53.80
2022-08-31T01:04:49.067Z,53.90
2022-08-31T01:06:28.033Z,53.80
2022-08-31T01:08:08.762Z,53.90
2022-08-31T01:09:53.268Z,54.50
2022-08-31T01:11:35.006Z,53.80
2022-08-31T01:13:14.888Z,53.80
2022-08-31T01:14:52.477Z,53.90
2022-08-31T01:16:36.709Z,53.90
2022-08-31T01:18:14.368Z,54.10
2022-08-31T01:20:03.228Z,54.00
2022-08-31T01:21:45.851Z,54.30
2022-08-31T01:23:26.171Z,54.30
2022-08-31T01:25:00.932Z,54.20
2022-08-31T01:26:34.874Z,54.20
2022-08-31T01:28:10.722Z,54.20
2022-08-31T01:29:44.654Z,54.20
2022-08-31T01:31:26.255Z,54.20
2022-08-31T01:33:01.247Z,54.30
2022-08-31T01:34:36.231Z,54.20
2022-08-31T01:36:15.499Z,54.30
2022-08-31T01:37:50.265Z,54.30
2022-08-31T01:39:26.551Z,54.30
2022-08-31T01:41:02.322Z,54.40
2022-08-31T01:42:36.435Z,54.40
2022-08-31T01:44:11.090Z,54.40
2022-08-31T01:45:43.892Z,54.50
2022-08-31T01:47:17.788Z,54.50
2022-08-31T01:48:54.547Z,54.60
2022-08-31T01:50:27.588Z,54.50
2022-08-31T01:52:01.469Z,54.50
2022-08-31T01:53:35.694Z,54.50
2022-08-31T01:55:12.230Z,54.60
2022-08-31T01:56:49.502Z,54.60
2022-08-31T01:58:31.206Z,54.70
2022-08-31T02:00:25.232Z,54.60
2022-08-31T02:01:59.975Z,54.60
2022-08-31T02:03:37.019Z,54.60
2022-08-31T02:05:12.736Z,54.60
2022-08-31T02:06:57.929Z,54.60
2022-08-31T02:08:37.700Z,54.80
2022-08-31T02:10:15.871Z,54.80
2022-08-31T02:11:49.902Z,54.90
2022-08-31T02:13:24.410Z,54.90
2022-08-31T02:14:57.782Z,54.80
2022-08-31T02:16:30.441Z,54.80
2022-08-31T02:18:03.946Z,54.90
2022-08-31T02:19:37.414Z,55.00
2022-08-31T02:21:12.414Z,54.90
2022-08-31T02:22:48.610Z,55.00
2022-08-31T02:24:21.920Z,55.00
2022-08-31T02:25:56.666Z,55.00
2022-08-31T02:27:29.451Z,55.00
2022-08-31T02:29:03.046Z,55.00
2022-08-31T02:30:36.802Z,55.00
2022-08-31T02:32:19.416Z,54.90
2022-08-31T02:33:54.014Z,55.00
2022-08-31T02:35:29.245Z,55.60
2022-08-31T02:37:03.158Z,55.00
2022-08-31T02:38:40.299Z,55.00
2022-08-31T02:40:13.519Z,55.00
2022-08-31T02:41:50.170Z,55.00
2022-08-31T02:43:24.671Z,55.10
2022-08-31T02:45:00.729Z,55.10
2022-08-31T02:46:35.101Z,55.10
2022-08-31T02:48:27.163Z,55.20
2022-08-31T02:50:01.813Z,55.10
2022-08-31T02:51:35.379Z,55.10
2022-08-31T02:53:10.547Z,55.10
2022-08-31T02:54:44.845Z,55.10
2022-08-31T02:56:18.392Z,55.10
2022-08-31T02:57:54.523Z,55.10
2022-08-31T03:00:42.401Z,55.30
2022-08-31T03:02:17.630Z,55.30
2022-08-31T03:03:51.632Z,55.60
2022-08-31T03:05:25.525Z,55.00
2022-08-31T03:06:57.944Z,55.00
2022-08-31T03:08:32.670Z,55.00
2022-08-31T03:10:11.396Z,55.10
2022-08-31T03:11:45.064Z,55.00
2022-08-31T03:13:20.604Z,55.00
2022-08-31T03:14:53.177Z,55.80
2022-08-31T03:16:27.321Z,55.10
2022-08-31T03:18:01.031Z,55.10
2022-08-31T03:19:40.658Z,55.20
2022-08-31T03:21:14.099Z,55.10
2022-08-31T03:22:48.213Z,55.10
2022-08-31T03:24:22.848Z,55.00
2022-08-31T03:26:01.344Z,55.00
2022-08-31T03:27:34.137Z,55.00
2022-08-31T03:29:08.889Z,55.10
2022-08-31T03:30:57.644Z,55.20
2022-08-31T03:32:31.892Z,55.10
2022-08-31T03:34:07.171Z,55.00
2022-08-31T03:35:44.077Z,55.00
2022-08-31T03:37:18.509Z,55.00
2022-08-31T03:38:52.014Z,55.00
2022-08-31T03:40:26.252Z,54.90
2022-08-31T03:41:59.741Z,55.00
2022-08-31T03:43:33.207Z,55.10
2022-08-31T03:45:08.429Z,55.10
2022-08-31T03:46:45.614Z,55.20
2022-08-31T03:48:20.133Z,55.30
2022-08-31T03:49:53.861Z,55.30
2022-08-31T03:51:31.822Z,55.20
2022-08-31T03:53:07.370Z,55.30
2022-08-31T03:54:41.525Z,55.40
2022-08-31T03:56:14.940Z,55.30
2022-08-31T03:57:48.676Z,55.40
2022-08-31T03:59:22.416Z,55.40
2022-08-31T04:01:16.306Z,55.40
2022-08-31T04:03:11.572Z,55.30
2022-08-31T04:05:05.819Z,55.40
2022-08-31T04:07:01.585Z,55.40
2022-08-31T04:08:57.166Z,55.40
2022-08-31T04:10:53.625Z,55.40
2022-08-31T04:12:47.260Z,55.50
2022-08-31T04:14:38.457Z,55.40
2022-08-31T04:16:35.604Z,55.40
2022-08-31T04:18:30.425Z,55.60
2022-08-31T04:20:04.980Z,55.60
2022-08-31T04:21:50.171Z,55.70
2022-08-31T04:23:24.275Z,55.70
2022-08-31T04:24:59.174Z,55.70
2022-08-31T04:26:37.170Z,55.80
2022-08-31T04:28:12.374Z,56.10
2022-08-31T04:29:46.533Z,56.10
2022-08-31T04:31:22.122Z,56.00
2022-08-31T04:32:57.012Z,56.10
2022-08-31T04:34:32.515Z,56.10
2022-08-31T04:36:10.524Z,56.20
2022-08-31T04:37:46.923Z,56.30
2022-08-31T04:39:24.143Z,56.20
2022-08-31T04:40:58.020Z,56.30
2022-08-31T04:42:31.864Z,56.30
2022-08-31T04:44:06.791Z,56.30
2022-08-31T04:45:44.609Z,56.30
2022-08-31T04:47:20.237Z,56.30
2022-08-31T04:48:54.140Z,56.30
2022-08-31T04:50:29.044Z,56.30
2022-08-31T04:52:18.603Z,56.30
2022-08-31T04:53:57.841Z,56.20
2022-08-31T04:55:31.357Z,56.30
2022-08-31T04:57:05.380Z,56.30
2022-08-31T04:58:40.048Z,56.30
2022-08-31T05:00:18.026Z,56.30
2022-08-31T05:02:12.644Z,56.40
2022-08-31T05:03:53.152Z,56.90
2022-08-31T05:05:27.019Z,56.30
2022-08-31T05:07:00.674Z,56.30
2022-08-31T05:08:35.215Z,56.40
2022-08-31T05:10:09.989Z,56.50
2022-08-31T05:11:45.465Z,56.60
2022-08-31T05:13:19.152Z,56.50
2022-08-31T05:14:52.669Z,56.50
2022-08-31T05:16:30.781Z,56.50
2022-08-31T05:18:05.042Z,56.50
2022-08-31T05:19:42.969Z,56.50
2022-08-31T05:21:25.554Z,56.50
2022-08-31T05:22:59.040Z,56.60
2022-08-31T05:24:35.789Z,56.50
2022-08-31T05:26:10.261Z,56.50
2022-08-31T05:27:44.343Z,56.60
2022-08-31T05:29:22.514Z,56.50
2022-08-31T05:30:59.346Z,56.50
2022-08-31T05:32:40.623Z,56.40
2022-08-31T05:34:17.735Z,56.40
2022-08-31T05:35:51.138Z,56.50
2022-08-31T05:37:26.474Z,56.40
2022-08-31T05:39:01.583Z,56.50
2022-08-31T05:40:35.566Z,56.50
2022-08-31T05:42:09.168Z,56.60
2022-08-31T05:43:43.693Z,56.60
2022-08-31T05:45:18.712Z,56.70
2022-08-31T05:47:03.459Z,56.70
2022-08-31T05:48:38.912Z,57.40
2022-08-31T05:50:15.796Z,56.90
2022-08-31T05:51:49.564Z,56.90
2022-08-31T05:53:23.316Z,57.00
2022-08-31T05:54:56.990Z,57.10
2022-08-31T05:56:30.553Z,57.20
2022-08-31T05:58:04.185Z,57.20
2022-08-31T05:59:40.957Z,57.20
2022-08-31T06:01:17.617Z,57.30
2022-08-31T06:03:06.412Z,57.30
2022-08-31T06:04:40.222Z,57.20
2022-08-31T06:06:16.233Z,57.20
2022-08-31T06:07:49.980Z,57.20
2022-08-31T06:09:25.932Z,57.20
2022-08-31T06:10:59.272Z,57.30
2022-08-31T06:12:34.210Z,57.30
2022-08-31T06:14:09.481Z,57.30
2022-08-31T06:15:43.776Z,57.40
2022-08-31T06:17:18.011Z,57.50
2022-08-31T06:18:52.140Z,57.50
2022-08-31T06:20:26.217Z,57.60
2022-08-31T06:22:00.434Z,57.60
2022-08-31T06:23:34.343Z,57.70
2022-08-31T06:25:11.397Z,57.70
2022-08-31T06:26:58.037Z,57.80
2022-08-31T06:28:36.254Z,57.70
2022-08-31T06:30:12.013Z,57.70
2022-08-31T06:31:47.389Z,57.80
2022-08-31T06:33:24.793Z,57.80
2022-08-31T06:35:18.333Z,57.80
2022-08-31T06:37:18.773Z,57.80
2022-08-31T06:39:07.473Z,57.70
2022-08-31T06:40:51.891Z,57.70
2022-08-31T06:42:45.196Z,57.70
2022-08-31T06:44:35.027Z,57.80
2022-08-31T06:46:23.041Z,57.80
2022-08-31T06:48:10.068Z,57.90
2022-08-31T06:49:44.700Z,58.00
2022-08-31T06:51:19.836Z,58.10
2022-08-31T06:52:55.555Z,58.10
2022-08-31T06:54:31.106Z,58.20
2022-08-31T06:56:26.952Z,58.30
2022-08-31T06:58:21.560Z,58.40
2022-08-31T07:00:11.625Z,58.30
2022-08-31T07:01:56.746Z,58.40
2022-08-31T07:03:40.492Z,58.40
2022-08-31T07:05:19.996Z,58.40
2022-08-31T07:06:58.832Z,58.40
2022-08-31T07:08:32.350Z,58.40
2022-08-31T07:10:10.365Z,58.40
2022-08-31T07:11:47.212Z,58.60
2022-08-31T07:13:21.015Z,58.60
2022-08-31T07:14:55.347Z,58.60
2022-08-31T07:16:33.474Z,58.70
2022-08-31T07:18:10.509Z,58.80
2022-08-31T07:19:45.142Z,58.70
2022-08-31T07:21:23.784Z,58.70
2022-08-31T07:22:57.789Z,58.80
2022-08-31T07:24:38.549Z,58.80
2022-08-31T07:26:18.648Z,59.00
2022-08-31T07:27:53.117Z,59.10
2022-08-31T07:29:31.495Z,59.20
2022-08-31T07:31:06.968Z,59.30
2022-08-31T07:32:42.017Z,59.40
2022-08-31T07:34:19.350Z,59.50
2022-08-31T07:36:16.236Z,59.70
2022-08-31T07:38:41.556Z,59.90
2022-08-31T07:40:32.753Z,60.00
2022-08-31T07:42:11.344Z,60.10
2022-08-31T07:43:44.940Z,60.20
2022-08-31T07:45:27.938Z,60.50
2022-08-31T07:47:05.986Z,60.60
2022-08-31T07:48:43.014Z,60.70
2022-08-31T07:50:32.947Z,60.50
2022-08-31T07:52:22.124Z,60.40
2022-08-31T07:54:20.518Z,60.20
2022-08-31T07:56:07.699Z,60.10
2022-08-31T07:57:44.376Z,59.90
2022-08-31T07:59:18.857Z,59.80
2022-08-31T08:00:52.459Z,59.70
2022-08-31T08:02:26.564Z,59.60
2022-08-31T08:04:02.093Z,59.60
2022-08-31T08:05:58.116Z,59.40
2022-08-31T08:07:54.989Z,59.20
2022-08-31T08:09:48.571Z,58.80
2022-08-31T08:11:46.520Z,58.50
2022-08-31T08:13:39.890Z,58.10
2022-08-31T08:15:23.961Z,57.80
2022-08-31T08:17:17.214Z,57.70
2022-08-31T08:18:58.587Z,57.50
2022-08-31T08:20:38.897Z,57.20
2022-08-31T08:22:19.322Z,57.40
2022-08-31T08:24:18.463Z,56.60
2022-08-31T08:26:21.122Z,56.40
2022-08-31T08:28:29.059Z,56.10
2022-08-31T08:30:06.197Z,56.00
2022-08-31T08:31:39.777Z,55.70
2022-08-31T08:33:13.702Z,55.40
2022-08-31T08:34:47.593Z,55.20
2022-08-31T08:36:23.956Z,55.10
2022-08-31T08:38:00.648Z,55.50
2022-08-31T08:39:36.866Z,54.60
2022-08-31T08:41:20.120Z,54.40
2022-08-31T08:42:54.910Z,54.20
2022-08-31T08:44:33.388Z,54.20
2022-08-31T08:46:31.258Z,54.00
2022-08-31T08:48:11.318Z,54.60
2022-08-31T08:49:54.206Z,54.00
2022-08-31T08:51:40.566Z,53.90
2022-08-31T08:53:15.424Z,53.60
2022-08-31T08:55:05.615Z,53.80
2022-08-31T08:56:46.995Z,53.60
2022-08-31T08:58:25.901Z,53.80
2022-08-31T09:00:02.743Z,53.80
2022-08-31T09:01:37.655Z,53.40
2022-08-31T09:03:22.809Z,53.40
2022-08-31T09:05:35.002Z,53.30
2022-08-31T09:07:42.501Z,53.10
2022-08-31T09:09:34.655Z,52.70
2022-08-31T09:11:19.264Z,52.50
2022-08-31T09:13:10.295Z,52.70
2022-08-31T09:15:27.692Z,52.40
2022-08-31T09:17:11.534Z,52.20
2022-08-31T09:18:53.495Z,52.30
2022-08-31T09:20:28.121Z,52.20
2022-08-31T09:22:03.089Z,52.10
2022-08-31T09:23:49.205Z,51.90
2022-08-31T09:25:29.766Z,51.30
2022-08-31T09:27:46.675Z,51.40
2022-08-31T09:29:26.644Z,50.90
2022-08-31T09:31:01.245Z,50.90
2022-08-31T09:32:37.129Z,51.00
2022-08-31T09:34:29.516Z,51.10
2022-08-31T09:36:18.201Z,50.80
2022-08-31T09:38:01.937Z,50.10
2022-08-31T09:39:37.475Z,49.90
2022-08-31T09:41:33.313Z,50.00
2022-08-31T09:43:13.913Z,49.60
2022-08-31T09:44:52.383Z,49.60
2022-08-31T09:46:31.188Z,49.40
2022-08-31T09:48:07.873Z,49.10
2022-08-31T09:49:42.260Z,48.90
2022-08-31T09:51:28.088Z,48.70
2022-08-31T09:53:47.247Z,48.60
2022-08-31T09:55:25.285Z,48.40
2022-08-31T09:57:02.909Z,48.70
2022-08-31T09:58:38.689Z,48.50
2022-08-31T10:00:16.612Z,48.30
2022-08-31T10:01:51.051Z,48.30
2022-08-31T10:03:30.237Z,48.30
2022-08-31T10:05:32.843Z,48.00
2022-08-31T10:07:25.908Z,48.00
2022-08-31T10:09:04.926Z,48.00
2022-08-31T10:10:43.440Z,48.00
2022-08-31T10:12:23.617Z,47.80
2022-08-31T10:14:16.056Z,47.50
2022-08-31T10:15:55.878Z,47.20
2022-08-31T10:17:37.985Z,47.20
2022-08-31T10:19:20.084Z,47.20
2022-08-31T10:21:05.998Z,47.10
2022-08-31T10:22:49.052Z,47.10
2022-08-31T10:24:32.802Z,46.90
2022-08-31T10:26:16.385Z,46.60
2022-08-31T10:27:58.453Z,45.70
2022-08-31T10:29:44.146Z,45.50
2022-08-31T10:31:26.304Z,44.50
2022-08-31T10:33:12.368Z,44.70
2022-08-31T10:35:05.827Z,44.60
2022-08-31T10:36:42.909Z,44.70
2022-08-31T10:38:26.561Z,44.70
2022-08-31T10:40:09.800Z,44.50
2022-08-31T10:41:51.072Z,44.50
2022-08-31T10:43:32.335Z,44.50
2022-08-31T10:45:18.253Z,44.60
2022-08-31T10:46:54.324Z,44.70
2022-08-31T10:48:28.396Z,44.80
2022-08-31T10:50:04.738Z,44.60
2022-08-31T10:51:48.445Z,44.30
2022-08-31T10:53:43.439Z,44.00
2022-08-31T10:55:29.026Z,43.50
2022-08-31T10:57:21.537Z,43.60
2022-08-31T10:59:10.099Z,43.40
2022-08-31T11:00:54.302Z,43.50
2022-08-31T11:03:00.777Z,43.50
2022-08-31T11:05:03.444Z,43.40
2022-08-31T11:06:49.190Z,43.30
2022-08-31T11:08:49.018Z,43.40
2022-08-31T11:10:40.556Z,42.20
2022-08-31T11:12:21.576Z,42.30
2022-08-31T11:14:18.670Z,42.50
2022-08-31T11:16:17.435Z,42.30
2022-08-31T11:18:40.273Z,42.30
2022-08-31T11:20:39.910Z,43.30
2022-08-31T11:22:46.176Z,43.90
2022-08-31T11:25:19.206Z,44.30
2022-08-31T11:27:06.080Z,44.60
2022-08-31T11:28:48.878Z,44.50
2022-08-31T11:30:26.791Z,45.40
2022-08-31T11:32:14.057Z,44.90
2022-08-31T11:34:14.116Z,44.90
2022-08-31T11:36:07.606Z,45.10
2022-08-31T11:38:01.136Z,45.00
2022-08-31T11:39:40.294Z,45.10
2022-08-31T11:41:36.569Z,45.50
2022-08-31T11:43:15.708Z,45.70
2022-08-31T11:45:07.490Z,45.60
2022-08-31T11:47:07.806Z,45.30
2022-08-31T11:48:59.685Z,44.90
2022-08-31T11:51:07.319Z,44.90
2022-08-31T11:52:45.142Z,44.80
2022-08-31T11:55:27.032Z,44.80
2022-08-31T11:57:00.358Z,44.30
2022-08-31T11:58:39.615Z,45.10
2022-08-31T12:00:20.508Z,44.30
2022-08-31T12:01:56.744Z,43.40
2022-08-31T12:03:53.964Z,43.50
2022-08-31T12:05:56.435Z,42.80
2022-08-31T12:07:40.816Z,43.10
2022-08-31T12:09:59.329Z,43.40
2022-08-31T12:11:48.317Z,43.40
2022-08-31T12:13:45.773Z,43.50
2022-08-31T12:15:32.507Z,43.60
2022-08-31T12:17:17.009Z,43.40
2022-08-31T12:19:33.313Z,43.40
2022-08-31T12:21:36.852Z,43.60
2022-08-31T12:23:37.295Z,43.50
2022-08-31T12:25:27.377Z,43.30
2022-08-31T12:27:24.722Z,43.40
2022-08-31T12:29:21.115Z,43.70
2022-08-31T12:30:59.275Z,43.60
2022-08-31T12:32:38.295Z,43.70
2022-08-31T12:34:19.297Z,43.80
2022-08-31T12:36:14.520Z,43.80
2022-08-31T12:38:00.600Z,43.60
2022-08-31T12:39:36.300Z,43.70
2022-08-31T12:41:14.180Z,43.80
2022-08-31T12:42:58.430Z,43.90
2022-08-31T12:44:36.868Z,43.70
2022-08-31T12:46:33.472Z,43.90
2022-08-31T12:48:25.351Z,43.90
2022-08-31T12:50:18.201Z,43.80
2022-08-31T12:52:01.173Z,43.80
2022-08-31T12:54:22.537Z,43.60
2022-08-31T12:56:05.805Z,43.40
2022-08-31T12:57:54.544Z,43.40
2022-08-31T13:00:00.067Z,43.60
2022-08-31T13:01:44.558Z,43.70
2022-08-31T13:03:25.083Z,43.70
2022-08-31T13:04:58.504Z,43.70
2022-08-31T13:06:37.025Z,43.70
2022-08-31T13:08:22.286Z,43.50
2022-08-31T13:10:12.434Z,43.20
2022-08-31T13:11:54.165Z,43.20
2022-08-31T13:13:30.800Z,43.20
2022-08-31T13:15:09.998Z,43.10
2022-08-31T13:16:52.247Z,42.80
2022-08-31T13:18:30.221Z,42.70
2022-08-31T13:20:05.218Z,42.70
2022-08-31T13:21:40.795Z,42.30
2022-08-31T13:23:24.527Z,42.10
2022-08-31T13:25:33.145Z,42.00
2022-08-31T13:27:13.240Z,41.80
2022-08-31T13:28:51.260Z,41.80
2022-08-31T13:30:25.879Z,41.50
2022-08-31T13:32:00.997Z,41.80
2022-08-31T13:33:39.974Z,41.70
2022-08-31T13:35:19.160Z,41.40
2022-08-31T13:36:59.605Z,41.60
2022-08-31T13:38:42.412Z,41.50
2022-08-31T13:40:24.899Z,41.50
2022-08-31T13:42:06.172Z,41.30
2022-08-31T13:43:39.704Z,41.30
2022-08-31T13:45:27.288Z,41.20
2022-08-31T13:47:05.494Z,40.90
2022-08-31T13:48:40.494Z,41.00
2022-08-31T13:50:21.686Z,40.90
2022-08-31T13:51:57.413Z,41.10
2022-08-31T13:53:45.988Z,40.80
2022-08-31T13:55:38.110Z,40.90
2022-08-31T13:57:19.631Z,40.70
2022-08-31T13:58:53.502Z,41.00
2022-08-31T14:00:40.100Z,40.90
2022-08-31T14:02:36.377Z,40.70
2022-08-31T14:04:43.256Z,40.20
2022-08-31T14:06:23.905Z,40.60
2022-08-31T14:08:03.735Z,40.40
2022-08-31T14:09:44.955Z,40.20
2022-08-31T14:11:19.043Z,40.10
2022-08-31T14:12:57.327Z,40.10
2022-08-31T14:14:40.007Z,39.70
2022-08-31T14:16:30.224Z,39.70
2022-08-31T14:18:25.995Z,39.30
2022-08-31T14:20:38.172Z,39.00
2022-08-31T14:22:30.124Z,38.30
2022-08-31T14:24:10.088Z,38.10
2022-08-31T14:25:42.632Z,38.10
2022-08-31T14:27:17.192Z,38.10
2022-08-31T14:28:54.045Z,38.10
2022-08-31T14:30:27.367Z,38.10
2022-08-31T14:32:04.752Z,38.70
2022-08-31T14:33:37.150Z,37.70
2022-08-31T14:35:11.997Z,37.80
2022-08-31T14:36:52.542Z,37.90
2022-08-31T14:38:26.203Z,37.90
2022-08-31T14:40:07.104Z,38.00
2022-08-31T14:41:41.495Z,37.80
2022-08-31T14:43:18.809Z,37.60
2022-08-31T14:44:58.564Z,37.70
2022-08-31T14:46:32.028Z,37.30
2022-08-31T14:48:08.925Z,37.20
2022-08-31T14:49:44.268Z,36.90
2022-08-31T14:51:16.774Z,37.00
2022-08-31T14:52:55.293Z,36.90
2022-08-31T14:54:34.712Z,36.50
2022-08-31T14:56:21.342Z,36.50
2022-08-31T14:58:02.308Z,36.50
2022-08-31T14:59:36.180Z,36.40
2022-08-31T15:01:10.888Z,36.60
2022-08-31T15:02:48.165Z,36.60
2022-08-31T15:04:22.533Z,36.50
2022-08-31T15:05:57.732Z,36.40
2022-08-31T15:07:32.290Z,36.30
2022-08-31T15:09:06.204Z,36.30
2022-08-31T15:10:41.059Z,36.10
2022-08-31T15:12:16.808Z,35.90
2022-08-31T15:13:49.383Z,35.90
2022-08-31T15:15:22.974Z,35.60
2022-08-31T15:17:00.980Z,35.40
2022-08-31T15:18:36.722Z,35.00
2022-08-31T15:20:12.454Z,35.00
2022-08-31T15:21:58.838Z,35.10
2022-08-31T15:23:41.633Z,34.90
2022-08-31T15:25:16.096Z,35.10
2022-08-31T15:26:50.371Z,34.90
2022-08-31T15:28:24.534Z,34.60
2022-08-31T15:30:07.997Z,34.20
2022-08-31T15:31:46.579Z,34.40
2022-08-31T15:33:22.821Z,34.20
2022-08-31T15:34:57.929Z,34.10
2022-08-31T15:36:32.738Z,33.90
2022-08-31T15:38:06.449Z,34.00
2022-08-31T15:39:48.859Z,33.90
2022-08-31T15:41:24.102Z,34.00
2022-08-31T15:42:57.476Z,34.20
2022-08-31T15:44:33.457Z,34.20
2022-08-31T15:46:13.791Z,34.20
2022-08-31T15:48:05.056Z,34.30
2022-08-31T15:49:40.263Z,34.20
2022-08-31T15:53:13.433Z,34.30
2022-08-31T15:54:48.439Z,34.70
2022-08-31T15:56:23.669Z,34.70
2022-08-31T15:57:59.896Z,34.70
2022-08-31T15:59:35.861Z,35.00
2022-08-31T16:01:16.230Z,35.00
2022-08-31T16:02:57.617Z,35.00
2022-08-31T16:04:33.363Z,34.80
2022-08-31T16:06:06.101Z,35.00
2022-08-31T16:07:42.682Z,35.30
2022-08-31T16:09:16.249Z,35.00
2022-08-31T16:10:50.194Z,34.90
2022-08-31T16:12:24.106Z,35.10
2022-08-31T16:13:59.987Z,35.20
2022-08-31T16:15:35.950Z,35.40
2022-08-31T16:17:11.888Z,35.40
2022-08-31T16:18:47.570Z,35.40
2022-08-31T16:20:21.109Z,35.50
2022-08-31T16:21:56.372Z,35.60
2022-08-31T16:23:32.603Z,35.90
2022-08-31T16:25:11.715Z,36.00
2022-08-31T16:26:51.136Z,36.30
2022-08-31T16:28:24.663Z,36.00
2022-08-31T16:29:58.199Z,35.80
2022-08-31T16:31:34.262Z,35.70
2022-08-31T16:33:07.921Z,35.70
2022-08-31T16:34:42.968Z,35.70
2022-08-31T16:36:20.252Z,35.60
2022-08-31T16:37:54.880Z,35.70
2022-08-31T16:39:29.220Z,35.80
2022-08-31T16:41:03.231Z,35.80
2022-08-31T16:42:36.733Z,35.80
2022-08-31T16:44:19.435Z,35.80
2022-08-31T16:45:53.776Z,35.70
2022-08-31T16:47:29.749Z,35.80
2022-08-31T16:49:20.704Z,35.70
2022-08-31T16:50:53.156Z,35.80
2022-08-31T16:52:27.258Z,36.00
2022-08-31T16:54:04.505Z,36.00
2022-08-31T16:55:41.958Z,35.70
2022-08-31T16:57:18.878Z,35.70
2022-08-31T16:58:53.122Z,35.90
2022-08-31T17:00:32.992Z,35.90
2022-08-31T17:02:12.143Z,36.00
2022-08-31T17:03:49.866Z,36.10
2022-08-31T17:05:24.495Z,36.10
2022-08-31T17:06:58.577Z,36.10
2022-08-31T17:08:32.449Z,36.10
2022-08-31T17:10:07.205Z,36.80
2022-08-31T17:11:47.181Z,36.30
2022-08-31T17:13:20.713Z,36.30
2022-08-31T17:14:54.445Z,36.30
2022-08-31T17:16:32.324Z,36.50
2022-08-31T17:18:06.250Z,36.60
2022-08-31T17:19:44.113Z,36.60
2022-08-31T17:21:19.095Z,36.60
2022-08-31T17:22:53.065Z,36.80
2022-08-31T17:24:30.294Z,36.70
2022-08-31T17:26:06.302Z,36.70
2022-08-31T17:27:40.687Z,36.60
2022-08-31T17:29:14.002Z,36.70
2022-08-31T17:30:47.303Z,36.80
2022-08-31T17:32:24.879Z,36.90
2022-08-31T17:33:59.771Z,37.10
2022-08-31T17:35:34.633Z,37.10
2022-08-31T17:37:14.522Z,37.10
2022-08-31T17:38:48.934Z,37.10
2022-08-31T17:40:22.688Z,37.10
2022-08-31T17:41:57.874Z,37.20
2022-08-31T17:43:35.732Z,37.40
2022-08-31T17:45:11.102Z,37.70
2022-08-31T17:46:45.861Z,37.90
2022-08-31T17:48:19.486Z,38.00
2022-08-31T17:49:54.084Z,38.00
2022-08-31T17:51:32.021Z,38.10
2022-08-31T17:53:05.657Z,38.20
2022-08-31T17:54:43.023Z,38.10
2022-08-31T17:56:16.728Z,37.80
2022-08-31T17:57:50.520Z,38.00
2022-08-31T17:59:28.424Z,38.00
2022-08-31T18:01:03.367Z,38.20
2022-08-31T18:02:37.650Z,38.20
2022-08-31T18:04:11.449Z,38.50
2022-08-31T18:05:46.529Z,38.60
2022-08-31T18:07:21.596Z,38.60
2022-08-31T18:08:55.016Z,38.70
2022-08-31T18:10:28.432Z,38.80
2022-08-31T18:12:03.024Z,38.90
2022-08-31T18:13:36.145Z,39.10
2022-08-31T18:15:11.933Z,39.10
2022-08-31T18:16:47.669Z,39.30
2022-08-31T18:18:22.657Z,39.50
2022-08-31T18:19:56.654Z,39.30
2022-08-31T18:21:30.085Z,39.40
2022-08-31T18:23:04.869Z,39.50
2022-08-31T18:24:39.195Z,39.90
2022-08-31T18:26:25.855Z,40.00
2022-08-31T18:28:03.418Z,40.10
2022-08-31T18:29:39.059Z,40.10
2022-08-31T18:31:13.925Z,40.10
2022-08-31T18:32:49.199Z,40.00
2022-08-31T18:34:25.866Z,40.30
2022-08-31T18:35:59.408Z,40.50
2022-08-31T18:37:32.864Z,41.40
2022-08-31T18:39:25.954Z,40.90
2022-08-31T18:41:27.382Z,41.10
2022-08-31T18:43:18.313Z,41.10
2022-08-31T18:45:09.167Z,41.20
2022-08-31T18:46:42.735Z,41.40
2022-08-31T18:48:25.705Z,41.30
2022-08-31T18:49:59.714Z,41.40
2022-08-31T18:51:36.579Z,41.40
2022-08-31T18:53:11.129Z,41.30
2022-08-31T18:54:52.958Z,41.40
2022-08-31T18:56:29.512Z,41.60
2022-08-31T18:58:03.076Z,41.60
2022-08-31T18:59:38.265Z,41.70
2022-08-31T19:01:15.499Z,41.80
2022-08-31T19:02:49.893Z,42.00
2022-08-31T19:04:23.633Z,42.00
2022-08-31T19:05:57.512Z,42.20
2022-08-31T19:07:30.840Z,42.30
2022-08-31T19:09:05.125Z,42.40
2022-08-31T19:10:41.995Z,42.50
2022-08-31T19:12:19.533Z,42.70
2022-08-31T19:13:54.502Z,42.70
2022-08-31T19:15:35.851Z,42.90
2022-08-31T19:17:09.801Z,43.00
2022-08-31T19:18:44.739Z,43.20
2022-08-31T19:20:18.780Z,43.90
2022-08-31T19:21:52.149Z,43.50
2022-08-31T19:23:26.512Z,43.50
2022-08-31T19:25:00.375Z,43.50
2022-08-31T19:26:39.598Z,43.70
2022-08-31T19:28:13.089Z,43.80
2022-08-31T19:29:46.535Z,43.90
2022-08-31T19:31:21.823Z,43.80
2022-08-31T19:32:56.038Z,44.10
2022-08-31T19:34:32.633Z,44.20
2022-08-31T19:36:06.869Z,44.20
2022-08-31T19:37:40.561Z,44.30
2022-08-31T19:39:18.041Z,44.40
2022-08-31T19:40:50.837Z,44.60
2022-08-31T19:42:59.679Z,44.80
2022-08-31T19:44:23.187Z,45.00
2022-08-31T19:46:09.552Z,45.00
2022-08-31T19:47:44.623Z,45.10
2022-08-31T19:49:18.213Z,45.10
2022-08-31T19:50:52.724Z,45.20
2022-08-31T19:52:26.148Z,45.40
2022-08-31T19:54:00.842Z,45.40
2022-08-31T19:55:34.392Z,45.40
2022-08-31T19:57:09.870Z,45.60
2022-08-31T19:58:46.963Z,45.70
2022-08-31T20:00:21.236Z,46.50
2022-08-31T20:01:59.426Z,46.40
2022-08-31T20:03:34.124Z,46.40
2022-08-31T20:05:09.335Z,46.40
2022-08-31T20:06:42.815Z,46.40
2022-08-31T20:08:17.024Z,46.40
2022-08-31T20:09:51.481Z,46.40
2022-08-31T20:11:28.630Z,46.30
2022-08-31T20:13:02.563Z,46.30
2022-08-31T20:14:38.451Z,46.40
2022-08-31T20:16:13.898Z,46.60
2022-08-31T20:17:49.544Z,46.80
2022-08-31T20:19:25.727Z,46.70
2022-08-31T20:21:00.942Z,46.90
2022-08-31T20:22:34.442Z,46.90
2022-08-31T20:24:12.443Z,47.00
2022-08-31T20:25:47.395Z,47.20
2022-08-31T20:27:21.403Z,47.20
2022-08-31T20:29:04.137Z,47.20
2022-08-31T20:30:43.825Z,47.40
2022-08-31T20:32:17.667Z,47.60
2022-08-31T20:33:51.161Z,47.40
2022-08-31T20:35:29.130Z,47.50
2022-08-31T20:37:03.444Z,47.60
2022-08-31T20:38:39.334Z,47.60
2022-08-31T20:40:17.022Z,47.70
2022-08-31T20:41:54.349Z,47.80
2022-08-31T20:43:32.575Z,47.80
2022-08-31T20:45:08.434Z,47.80
2022-08-31T20:47:06.415Z,47.90
2022-08-31T20:48:57.912Z,48.10
2022-08-31T20:50:31.677Z,47.90
2022-08-31T20:52:05.413Z,48.00
2022-08-31T20:53:43.623Z,48.10
2022-08-31T20:55:17.268Z,48.10
2022-08-31T20:56:51.658Z,48.20
2022-08-31T20:58:25.406Z,48.30
2022-08-31T21:00:00.469Z,48.30
2022-08-31T21:01:33.966Z,48.20
2022-08-31T21:03:09.062Z,48.30
2022-08-31T21:04:45.862Z,48.40
2022-08-31T21:06:18.356Z,48.50
2022-08-31T21:07:57.203Z,48.60
2022-08-31T21:09:32.025Z,48.70
2022-08-31T21:11:13.553Z,48.70
2022-08-31T21:12:47.844Z,48.60
2022-08-31T21:14:21.704Z,48.60
2022-08-31T21:15:55.916Z,48.60
2022-08-31T21:17:28.317Z,48.60
2022-08-31T21:19:03.449Z,48.50
2022-08-31T21:20:37.645Z,48.80
2022-08-31T21:22:17.233Z,48.80
2022-08-31T21:23:50.933Z,49.00
2022-08-31T21:25:24.408Z,49.00
2022-08-31T21:26:59.361Z,49.00
2022-08-31T21:28:33.164Z,49.20
2022-08-31T21:30:11.549Z,49.20